Time;durP1;ratioP1;P1;durP2;ratioP2;P2;SDS_P1;SDS_P2;PMS_P1;PMS_P2;Temp;Humidity;BMP_temperature;BMP_pressure;BME280_temperature;BME280_humidity;BME280_pressure;Samples;Min_cycle;Max_cycle;Signal;HPM_P1;HPM_P2
2023/09/05 00:02:05;;;;;;;0.13;0.13;;;;;;;16.02;72.42;98410.09;5067396;28;20045;-67
2023/09/05 00:04:32;;;;;;;0.13;0.13;;;;;;;16.04;71.65;98413.41;5059589;28;20037;-67
2023/09/05 00:07:00;;;;;;;0.20;0.20;;;;;;;16.10;71.56;98409.88;5070905;28;20068;-69
2023/09/05 00:09:29;;;;;;;0.17;0.17;;;;;;;16.09;72.03;98412.81;5064608;28;20079;-67
2023/09/05 00:11:57;;;;;;;0.10;0.10;;;;;;;16.02;72.19;98415.50;5068366;28;20048;-68
2023/09/05 00:14:24;;;;;;;0.10;0.10;;;;;;;15.98;72.48;98414.28;5070865;28;20044;-68
2023/09/05 00:16:52;;;;;;;0.10;0.10;;;;;;;16.09;72.03;98410.91;5072039;28;20047;-67
2023/09/05 00:19:20;;;;;;;0.10;0.10;;;;;;;16.05;71.92;98408.88;5063778;28;20123;-68
2023/09/05 00:21:47;;;;;;;0.10;0.10;;;;;;;15.87;71.89;98411.38;5068410;28;20045;-67
2023/09/05 00:24:27;;;;;;;0.10;0.10;;;;;;;15.92;71.86;98415.09;5064095;28;20051;-68
2023/09/05 00:26:56;;;;;;;0.10;0.10;;;;;;;15.88;71.76;98410.34;5063069;28;20048;-68
2023/09/05 00:29:26;;;;;;;0.03;0.03;;;;;;;15.69;72.67;98407.44;5058398;28;20488;-67
2023/09/05 00:31:58;;;;;;;0.20;0.20;;;;;;;15.58;73.02;98410.72;5066615;28;20131;-67
2023/09/05 00:34:27;;;;;;;0.17;0.17;;;;;;;15.62;72.84;98412.00;5068105;28;20068;-68
2023/09/05 00:36:54;;;;;;;0.10;0.10;;;;;;;15.65;72.71;98416.13;5070564;28;20135;-68
2023/09/05 00:39:22;;;;;;;0.13;0.13;;;;;;;15.63;72.39;98410.97;5059838;28;20123;-67
2023/09/05 00:41:50;;;;;;;0.13;0.13;;;;;;;15.63;72.32;98405.56;5063231;28;20036;-68
2023/09/05 00:44:19;;;;;;;0.10;0.10;;;;;;;15.57;72.33;98395.66;5064455;28;20127;-67
2023/09/05 00:46:48;;;;;;;0.03;0.03;;;;;;;15.39;73.25;98392.69;5063547;28;20041;-67
2023/09/05 00:49:16;;;;;;;0.20;0.20;;;;;;;15.28;73.37;98401.34;5055753;28;20044;-68
2023/09/05 00:51:45;;;;;;;0.03;0.03;;;;;;;15.19;74.16;98397.22;5062871;28;20075;-68
2023/09/05 00:54:13;;;;;;;0.10;0.10;;;;;;;15.23;73.87;98401.16;5059799;28;20416;-67
2023/09/05 00:56:41;;;;;;;0.10;0.10;;;;;;;15.23;74.24;98401.16;5060312;28;20345;-67
2023/09/05 00:59:10;;;;;;;0.03;0.03;;;;;;;15.28;73.82;98401.34;5058106;28;20053;-67
2023/09/05 01:01:39;;;;;;;0.15;0.15;;;;;;;15.19;73.88;98407.97;5056608;28;20054;-67
2023/09/05 01:04:07;;;;;;;0.20;0.20;;;;;;;15.17;74.04;98413.53;5056566;28;20049;-68
2023/09/05 01:06:40;;;;;;;0.13;0.13;;;;;;;15.17;74.35;98399.25;5063552;28;20037;-67
2023/09/05 01:09:17;;;;;;;0.20;0.20;;;;;;;15.09;74.69;98397.59;5054300;28;20051;-67
2023/09/05 01:11:45;;;;;;;0.22;0.22;;;;;;;15.02;74.86;98405.66;5067122;28;20133;-68
2023/09/05 01:14:14;;;;;;;0.10;0.10;;;;;;;14.96;75.04;98402.94;5064051;28;20119;-67
2023/09/05 01:16:45;;;;;;;0.10;0.10;;;;;;;15.09;74.20;98402.16;5066624;28;20095;-67
2023/09/05 01:19:15;;;;;;;0.20;0.20;;;;;;;15.08;73.95;98393.25;5064283;28;20045;-68
2023/09/05 01:21:51;;;;;;;0.10;0.10;;;;;;;15.03;74.22;98399.25;5056024;28;20041;-67
2023/09/05 01:24:21;;;;;;;0.22;0.22;;;;;;;14.71;75.37;98399.97;5069100;28;20036;-67
2023/09/05 01:26:51;;;;;;;0.13;0.13;;;;;;;14.76;75.40;98397.50;5066596;28;20123;-68
2023/09/05 01:36:01;;;;;;;0.25;0.25;;;;;;;14.85;75.23;98382.84;4982371;28;20093;-69
2023/09/05 01:38:30;;;;;;;0.22;0.22;;;;;;;14.84;74.91;98391.13;4979990;28;20493;-69
2023/09/05 01:40:59;;;;;;;0.20;0.20;;;;;;;14.84;74.75;98391.97;5001008;28;20054;-69
2023/09/05 01:43:27;;;;;;;0.15;0.15;;;;;;;14.74;75.17;98393.38;4993683;28;20373;-68
2023/09/05 01:45:55;;;;;;;0.13;0.13;;;;;;;14.70;75.06;98384.88;5009992;28;20049;-69
2023/09/05 01:48:22;;;;;;;0.13;0.13;;;;;;;14.84;74.66;98383.91;5002372;28;20676;-68
2023/09/05 01:50:50;;;;;;;0.13;0.13;;;;;;;14.80;74.54;98376.44;5006182;28;20141;-68
2023/09/05 01:53:18;;;;;;;0.13;0.13;;;;;;;14.91;74.48;98376.69;5006757;28;20034;-68
2023/09/05 01:55:45;;;;;;;0.10;0.10;;;;;;;14.82;74.81;98374.38;5010313;28;20037;-68
2023/09/05 01:58:14;;;;;;;0.13;0.13;;;;;;;14.85;74.60;98371.25;5008749;28;20493;-69
2023/09/05 02:00:42;;;;;;;0.13;0.13;;;;;;;14.73;74.98;98380.97;5010762;28;20041;-69
2023/09/05 02:03:10;;;;;;;0.03;0.03;;;;;;;14.66;75.32;98376.38;5023406;28;20073;-68
2023/09/05 02:05:38;;;;;;;0.03;0.03;;;;;;;14.76;74.92;98378.69;5025971;28;20049;-69
2023/09/05 02:08:06;;;;;;;0.13;0.13;;;;;;;14.87;74.51;98369.22;5009589;28;20118;-69
2023/09/05 02:10:34;;;;;;;0.13;0.13;;;;;;;14.86;74.56;98378.28;5011115;28;20042;-68
2023/09/05 02:13:01;;;;;;;0.03;0.03;;;;;;;14.82;74.40;98372.53;5026509;28;20481;-68
2023/09/05 02:15:31;;;;;;;0.13;0.13;;;;;;;14.88;74.20;98365.50;5012309;28;20034;-68
2023/09/05 02:18:00;;;;;;;0.05;0.05;;;;;;;14.78;74.09;98360.50;5025861;28;20464;-67
2023/09/05 02:20:28;;;;;;;0.30;0.30;;;;;;;14.75;74.29;98360.91;5011597;28;20050;-68
2023/09/05 02:22:56;;;;;;;0.13;0.13;;;;;;;14.83;74.17;98366.13;5023922;28;20050;-68
2023/09/05 02:25:23;;;;;;;0.10;0.10;;;;;;;14.76;74.08;98361.72;5013749;28;20042;-68
2023/09/05 02:27:51;;;;;;;0.08;0.08;;;;;;;14.61;74.31;98362.72;5014662;28;20721;-67
2023/09/05 02:30:20;;;;;;;0.10;0.10;;;;;;;14.67;74.12;98355.72;5014302;28;20071;-67
2023/09/05 02:32:52;;;;;;;0.22;0.22;;;;;;;14.62;74.45;98359.03;5014096;28;20077;-68
2023/09/05 02:35:23;;;;;;;0.10;0.10;;;;;;;14.58;74.61;98357.75;5012877;28;20092;-67
2023/09/05 02:37:51;;;;;;;0.20;0.20;;;;;;;14.68;74.08;98355.50;5014209;28;20077;-68
2023/09/05 02:40:19;;;;;;;0.20;0.20;;;;;;;14.69;73.70;98354.50;5013555;28;20485;-68
2023/09/05 02:42:47;;;;;;;0.10;0.10;;;;;;;14.95;72.77;98359.09;5028632;28;20149;-68
2023/09/05 02:45:15;;;;;;;0.10;0.10;;;;;;;14.84;72.89;98357.03;5014062;28;20393;-68
2023/09/05 02:47:42;;;;;;;0.20;0.20;;;;;;;14.83;72.46;98352.69;5014237;28;20042;-68
2023/09/05 02:50:12;;;;;;;0.10;0.10;;;;;;;14.84;72.78;98362.41;5014687;28;20046;-68
2023/09/05 02:52:40;;;;;;;0.10;0.10;;;;;;;14.78;72.95;98352.44;5028352;28;20532;-68
2023/09/05 02:55:15;;;;;;;0.05;0.05;;;;;;;14.88;72.01;98354.75;5006908;28;20497;-68
2023/09/05 02:57:42;;;;;;;0.13;0.13;;;;;;;14.97;71.71;98353.50;5013705;28;20448;-68
2023/09/05 03:00:11;;;;;;;0.20;0.20;;;;;;;15.04;71.49;98349.00;5005168;28;20052;-67
2023/09/05 03:02:40;;;;;;;0.13;0.13;;;;;;;15.04;71.80;98349.00;5013381;28;20137;-67
2023/09/05 03:05:08;;;;;;;0.13;0.13;;;;;;;15.01;71.70;98347.53;5012911;28;20062;-68
2023/09/05 03:07:37;;;;;;;0.13;0.13;;;;;;;15.11;71.19;98346.31;5012569;28;20038;-68
2023/09/05 03:10:06;;;;;;;0.13;0.13;;;;;;;15.04;71.37;98352.53;5014201;28;20389;-68
2023/09/05 03:12:34;;;;;;;0.10;0.10;;;;;;;14.99;71.46;98352.28;5013813;28;20493;-68
2023/09/05 03:15:02;;;;;;;0.22;0.22;;;;;;;15.06;71.04;98352.28;5013427;28;20456;-68
2023/09/05 03:17:29;;;;;;;0.10;0.10;;;;;;;15.09;70.90;98348.38;5013306;28;20572;-68
2023/09/05 03:19:57;;;;;;;0.22;0.22;;;;;;;15.10;70.88;98350.84;5012271;28;20048;-69
2023/09/05 03:22:24;;;;;;;0.13;0.13;;;;;;;15.12;70.86;98348.78;5013654;28;20056;-67
2023/09/05 03:24:54;;;;;;;0.15;0.15;;;;;;;15.13;71.02;98355.00;5013270;28;20049;-67
2023/09/05 03:27:22;;;;;;;0.05;0.05;;;;;;;15.17;70.54;98345.47;5028637;28;20100;-67
2023/09/05 03:29:50;;;;;;;0.20;0.20;;;;;;;15.19;70.42;98355.00;5012192;28;20053;-67
2023/09/05 03:32:19;;;;;;;0.10;0.10;;;;;;;15.14;70.71;98356.66;5012079;28;20034;-67
2023/09/05 03:34:48;;;;;;;0.13;0.13;;;;;;;15.15;71.04;98359.16;5010897;28;20085;-67
2023/09/05 03:37:16;;;;;;;0.20;0.20;;;;;;;15.12;70.75;98351.50;5012288;28;20516;-69
2023/09/05 03:39:45;;;;;;;0.13;0.13;;;;;;;15.09;70.78;98348.38;5012020;28;20080;-67
2023/09/05 03:42:14;;;;;;;0.03;0.03;;;;;;;15.08;71.09;98358.28;5010493;28;20104;-67
2023/09/05 03:44:43;;;;;;;0.13;0.13;;;;;;;15.08;70.84;98358.28;5005973;28;20046;-67
2023/09/05 03:47:11;;;;;;;0.03;0.03;;;;;;;15.08;70.87;98352.91;5012713;28;20038;-66
2023/09/05 03:49:38;;;;;;;0.15;0.15;;;;;;;15.04;71.11;98357.91;5020581;28;20041;-67
2023/09/05 03:52:06;;;;;;;0.03;0.03;;;;;;;15.06;71.02;98344.22;5018713;28;20121;-69
2023/09/05 03:54:34;;;;;;;0.17;0.17;;;;;;;15.00;71.32;98345.06;5013460;28;20048;-69
2023/09/05 03:57:02;;;;;;;0.13;0.13;;;;;;;14.99;71.44;98333.47;5012982;28;20092;-69
2023/09/05 03:59:31;;;;;;;0.10;0.10;;;;;;;15.00;71.48;98335.13;5017161;28;20064;-69
2023/09/05 04:02:00;;;;;;;0.10;0.10;;;;;;;14.89;71.59;98348.34;5011854;28;20049;-69
2023/09/05 04:04:28;;;;;;;0.17;0.17;;;;;;;14.76;71.97;98333.00;5012505;28;20042;-69
2023/09/05 04:06:56;;;;;;;0.17;0.17;;;;;;;14.83;71.99;98336.56;5010137;28;20034;-69
2023/09/05 04:09:23;;;;;;;0.25;0.25;;;;;;;14.84;71.89;98330.16;5026428;28;20068;-69
2023/09/05 04:11:53;;;;;;;0.15;0.15;;;;;;;14.81;71.88;98327.03;5025786;28;20050;-69
2023/09/05 04:14:21;;;;;;;0.30;0.30;;;;;;;14.84;71.85;98327.47;5010209;28;20132;-69
2023/09/05 04:16:50;;;;;;;0.20;0.20;;;;;;;14.77;72.05;98325.75;5011009;28;20041;-68
2023/09/05 04:19:18;;;;;;;0.20;0.20;;;;;;;14.77;72.26;98337.34;5012587;28;20048;-69
2023/09/05 04:21:46;;;;;;;0.20;0.20;;;;;;;14.77;72.17;98333.81;5027516;28;20458;-68
2023/09/05 04:24:13;;;;;;;0.13;0.13;;;;;;;14.82;72.29;98326.81;5027571;28;20049;-67
2023/09/05 04:26:44;;;;;;;0.10;0.10;;;;;;;14.80;72.13;98331.56;5027852;28;20048;-68
2023/09/05 04:29:12;;;;;;;0.25;0.25;;;;;;;14.82;72.07;98334.88;5011455;28;20044;-66
2023/09/05 04:31:39;;;;;;;0.22;0.22;;;;;;;14.85;72.10;98331.78;5010999;28;20503;-69
2023/09/05 04:34:08;;;;;;;0.13;0.13;;;;;;;14.89;71.97;98337.59;5011912;28;20046;-68
2023/09/05 04:36:36;;;;;;;0.22;0.22;;;;;;;14.88;72.22;98334.06;5010849;28;20042;-68
2023/09/05 04:39:06;;;;;;;0.22;0.22;;;;;;;14.84;72.34;98329.31;5012173;28;20053;-68
2023/09/05 04:41:34;;;;;;;0.13;0.13;;;;;;;14.81;72.44;98329.72;5011011;28;20042;-69
2023/09/05 04:44:01;;;;;;;0.15;0.15;;;;;;;14.86;72.52;98338.81;5010674;28;20048;-69
2023/09/05 04:46:37;;;;;;;0.10;0.10;;;;;;;14.87;72.37;98329.72;5009570;28;20042;-69
2023/09/05 04:49:05;;;;;;;0.22;0.22;;;;;;;14.85;72.74;98330.94;5012617;28;20129;-69
2023/09/05 04:51:34;;;;;;;0.10;0.10;;;;;;;14.90;72.45;98331.19;5012360;28;20096;-68
2023/09/05 04:54:01;;;;;;;0.10;0.10;;;;;;;14.94;72.09;98335.13;5011724;28;20424;-69
2023/09/05 04:56:29;;;;;;;0.08;0.08;;;;;;;14.99;72.08;98330.78;5012157;28;20113;-69
2023/09/05 04:58:57;;;;;;;0.13;0.13;;;;;;;14.98;72.24;98330.97;5011735;28;20046;-69
2023/09/05 05:01:24;;;;;;;0.25;0.25;;;;;;;15.04;72.07;98319.41;5012002;28;20045;-69
2023/09/05 05:03:52;;;;;;;0.13;0.13;;;;;;;15.00;72.03;98328.91;5011518;28;20053;-69
2023/09/05 05:06:20;;;;;;;0.15;0.15;;;;;;;15.04;72.11;98319.41;5012193;28;20046;-69
2023/09/05 05:08:49;;;;;;;0.10;0.10;;;;;;;15.05;71.83;98316.50;5011979;28;20050;-69
2023/09/05 05:11:16;;;;;;;0.10;0.10;;;;;;;15.11;71.56;98314.03;5012373;28;20050;-69
2023/09/05 05:13:44;;;;;;;0.22;0.22;;;;;;;15.14;71.72;98313.63;5011582;28;20788;-69
2023/09/05 05:16:11;;;;;;;0.15;0.15;;;;;;;15.18;71.55;98312.19;5011749;28;20038;-69
2023/09/05 05:18:39;;;;;;;0.13;0.13;;;;;;;15.20;71.35;98304.72;5011782;28;20034;-69
2023/09/05 05:21:07;;;;;;;0.15;0.15;;;;;;;15.19;71.35;98298.53;5011547;28;20559;-69
2023/09/05 05:23:34;;;;;;;0.10;0.10;;;;;;;15.21;71.49;98301.00;5011252;28;20056;-69
2023/09/05 05:26:03;;;;;;;0.20;0.20;;;;;;;15.22;71.39;98294.59;5011487;28;20121;-69
2023/09/05 05:28:31;;;;;;;0.20;0.20;;;;;;;15.18;71.49;98294.19;5011696;28;20057;-68
2023/09/05 05:30:59;;;;;;;0.10;0.10;;;;;;;15.27;71.12;98300.19;5011770;28;20045;-69
2023/09/05 05:33:26;;;;;;;0.03;0.03;;;;;;;15.29;71.36;98296.25;5011380;28;20066;-69
2023/09/05 05:35:55;;;;;;;0.05;0.05;;;;;;;15.35;71.13;98284.69;5008687;28;20042;-69
2023/09/05 05:38:23;;;;;;;0.13;0.13;;;;;;;15.40;70.96;98287.56;5004786;28;20042;-69
2023/09/05 05:40:51;;;;;;;0.10;0.10;;;;;;;15.48;70.69;98283.00;5003867;28;20367;-69
2023/09/05 05:43:21;;;;;;;0.20;0.20;;;;;;;15.52;70.64;98285.06;5011148;28;20512;-68
2023/09/05 05:45:51;;;;;;;0.13;0.13;;;;;;;15.55;70.53;98281.16;5002229;28;20050;-69
2023/09/05 05:48:19;;;;;;;0.08;0.08;;;;;;;15.61;70.20;98283.00;5011364;28;20041;-69
2023/09/05 05:50:47;;;;;;;0.03;0.03;;;;;;;15.61;70.27;98289.22;5011647;28;20046;-69
2023/09/05 05:53:15;;;;;;;0.10;0.10;;;;;;;15.64;70.32;98285.28;5011004;28;20124;-69
2023/09/05 05:55:42;;;;;;;0.20;0.20;;;;;;;15.68;70.17;98292.72;5010914;28;20066;-68
2023/09/05 05:58:10;;;;;;;0.10;0.10;;;;;;;15.76;70.02;98289.00;5012248;28;20046;-69
2023/09/05 06:00:50;;;;;;;0.13;0.13;;;;;;;15.84;69.58;98299.53;5015321;28;20065;-69
2023/09/05 06:03:18;;;;;;;0.22;0.22;;;;;;;15.91;69.46;98303.03;5015251;28;20042;-69
2023/09/05 06:05:47;;;;;;;0.10;0.10;;;;;;;15.96;69.24;98307.78;5015107;28;20104;-69
2023/09/05 06:08:15;;;;;;;0.10;0.10;;;;;;;15.98;69.07;98300.34;5015233;28;20048;-69
2023/09/05 06:10:42;;;;;;;0.20;0.20;;;;;;;16.04;69.10;98299.47;5015035;28;20412;-69
2023/09/05 06:13:11;;;;;;;0.13;0.13;;;;;;;16.10;68.69;98304.00;5014855;28;20125;-69
2023/09/05 06:15:40;;;;;;;0.20;0.20;;;;;;;16.13;68.99;98296.34;5014846;28;20052;-69
2023/09/05 06:18:08;;;;;;;0.13;0.13;;;;;;;16.21;68.43;98295.25;5013904;28;20042;-69
2023/09/05 06:20:36;;;;;;;0.13;0.13;;;;;;;16.29;68.09;98297.75;5014946;28;20117;-69
2023/09/05 06:23:04;;;;;;;0.22;0.22;;;;;;;16.34;68.29;98294.41;5014692;28;20316;-69
2023/09/05 06:25:32;;;;;;;0.10;0.10;;;;;;;16.42;67.95;98294.97;5013646;28;20050;-69
2023/09/05 06:28:00;;;;;;;0.13;0.13;;;;;;;16.50;67.91;98296.63;5014688;28;20038;-69
2023/09/05 06:30:27;;;;;;;0.17;0.17;;;;;;;16.59;67.44;98299.88;5005973;28;20037;-69
2023/09/05 06:32:56;;;;;;;0.13;0.13;;;;;;;16.64;67.43;98292.81;5013244;28;20053;-68
2023/09/05 06:35:24;;;;;;;0.13;0.13;;;;;;;16.74;67.24;98295.03;5007645;28;20042;-68
2023/09/05 06:37:52;;;;;;;0.13;0.13;;;;;;;16.82;66.78;98298.31;5009582;28;20081;-66
2023/09/05 06:40:21;;;;;;;0.13;0.13;;;;;;;16.92;66.05;98283.53;5014665;28;20046;-66
2023/09/05 06:42:50;;;;;;;0.13;0.13;;;;;;;16.97;66.13;98291.78;5014729;28;20045;-68
2023/09/05 06:45:18;;;;;;;0.20;0.20;;;;;;;17.09;65.31;98290.88;5014447;28;20052;-66
2023/09/05 06:47:46;;;;;;;0.20;0.20;;;;;;;17.16;64.87;98294.34;5014577;28;20497;-67
2023/09/05 06:50:15;;;;;;;0.13;0.13;;;;;;;17.27;64.26;98303.59;5014363;28;20120;-66
2023/09/05 06:52:42;;;;;;;0.05;0.05;;;;;;;17.37;64.26;98301.22;5014223;28;20120;-67
2023/09/05 06:55:12;;;;;;;0.13;0.13;;;;;;;17.42;64.13;98297.88;5014810;28;20080;-66
2023/09/05 06:57:39;;;;;;;0.10;0.10;;;;;;;17.49;63.96;98291.38;5014419;28;20034;-66
2023/09/05 07:00:08;;;;;;;0.13;0.13;;;;;;;17.61;63.44;98300.41;5014395;28;20053;-67
2023/09/05 07:02:36;;;;;;;0.03;0.03;;;;;;;17.71;63.34;98299.09;5014174;28;20125;-67
2023/09/05 07:05:04;;;;;;;0.03;0.03;;;;;;;17.81;62.59;98292.13;5015225;28;20046;-66
2023/09/05 07:07:33;;;;;;;0.13;0.13;;;;;;;17.94;62.67;98294.72;5013712;28;20072;-67
2023/09/05 07:10:00;;;;;;;0.08;0.08;;;;;;;18.01;62.19;98301.91;5014184;28;20072;-68
2023/09/05 07:12:28;;;;;;;0.03;0.03;;;;;;;18.06;62.03;98296.66;5013872;28;20042;-67
2023/09/05 07:14:56;;;;;;;0.13;0.13;;;;;;;18.10;60.13;98287.88;5014358;28;20080;-68
2023/09/05 07:17:23;;;;;;;0.10;0.10;;;;;;;18.18;60.46;98305.66;5015912;28;20046;-69
2023/09/05 07:19:51;;;;;;;0.10;0.10;;;;;;;18.29;59.18;98300.31;5016250;28;20053;-68
2023/09/05 07:22:20;;;;;;;0.13;0.13;;;;;;;18.35;59.41;98304.00;5014390;28;20034;-68
2023/09/05 07:24:49;;;;;;;0.00;0.00;;;;;;;18.41;58.99;98294.16;5014032;28;20108;-69
2023/09/05 07:27:17;;;;;;;0.10;0.10;;;;;;;18.47;58.22;98299.50;5013928;28;20037;-67
2023/09/05 07:29:45;;;;;;;0.13;0.13;;;;;;;18.55;57.67;98290.22;5014385;28;20041;-70
2023/09/05 07:32:12;;;;;;;0.10;0.10;;;;;;;18.63;57.35;98293.47;5013652;28;20042;-67
2023/09/05 07:34:41;;;;;;;0.17;0.17;;;;;;;18.75;57.36;98303.50;5013117;28;20041;-68
2023/09/05 07:37:08;;;;;;;0.03;0.03;;;;;;;18.82;57.28;98293.41;5014028;28;20053;-68
2023/09/05 07:39:36;;;;;;;0.05;0.05;;;;;;;18.88;58.20;98306.03;5013508;28;20052;-68
2023/09/05 07:42:06;;;;;;;0.03;0.03;;;;;;;18.93;57.22;98300.75;5013515;28;20124;-68
2023/09/05 07:44:33;;;;;;;0.13;0.13;;;;;;;19.00;56.87;98301.47;5013200;28;20049;-68
2023/09/05 07:47:01;;;;;;;0.03;0.03;;;;;;;19.11;56.38;98297.97;5036684;23;20042;-72
2023/09/05 07:49:31;;;;;;;0.13;0.13;;;;;;;19.15;55.94;98310.00;5012763;28;20050;-72
2023/09/05 07:51:59;;;;;;;0.10;0.10;;;;;;;19.21;55.36;98311.75;5012642;28;20124;-72
2023/09/05 07:54:27;;;;;;;0.10;0.10;;;;;;;19.28;55.86;98315.22;5006491;28;20061;-72
2023/09/05 07:56:55;;;;;;;0.10;0.10;;;;;;;19.41;55.03;98319.59;5007256;28;20484;-72
2023/09/05 07:59:24;;;;;;;0.13;0.13;;;;;;;19.55;54.42;98322.91;5012384;28;20048;-72
2023/09/05 08:01:51;;;;;;;0.13;0.13;;;;;;;19.64;54.77;98321.50;5005207;28;20076;-71
2023/09/05 08:04:19;;;;;;;0.10;0.10;;;;;;;19.72;53.82;98326.59;5010850;28;20348;-72
2023/09/05 08:06:47;;;;;;;0.22;0.22;;;;;;;19.79;53.84;98322.72;4996879;28;20042;-71
2023/09/05 08:09:15;;;;;;;0.03;0.03;;;;;;;19.85;53.78;98323.63;5009600;28;20044;-71
2023/09/05 08:11:43;;;;;;;0.10;0.10;;;;;;;19.90;53.85;98331.06;5012428;28;20048;-71
2023/09/05 08:14:10;;;;;;;0.10;0.10;;;;;;;19.88;53.86;98319.63;4986352;28;20533;-71
2023/09/05 08:16:39;;;;;;;0.10;0.10;;;;;;;19.93;53.81;98325.19;5012045;28;20142;-73
2023/09/05 08:19:07;;;;;;;0.15;0.15;;;;;;;19.91;53.52;98311.03;5012257;28;20041;-72
2023/09/05 08:21:35;;;;;;;0.03;0.03;;;;;;;19.97;53.93;98320.91;5012271;28;20121;-72
2023/09/05 08:24:03;;;;;;;0.10;0.10;;;;;;;20.04;54.08;98319.72;5012348;28;20080;-72
2023/09/05 08:26:33;;;;;;;0.10;0.10;;;;;;;20.09;54.02;98324.44;5012743;28;20129;-72
2023/09/05 08:29:03;;;;;;;0.13;0.13;;;;;;;20.09;53.45;98322.56;5001748;28;20050;-72
2023/09/05 08:31:31;;;;;;;0.10;0.10;;;;;;;20.14;53.43;98321.88;4998803;28;20089;-71
2023/09/05 08:34:00;;;;;;;0.10;0.10;;;;;;;20.16;53.72;98317.84;5001159;28;20053;-74
2023/09/05 08:36:28;;;;;;;0.10;0.10;;;;;;;20.17;53.77;98321.38;5000676;28;20046;-74
2023/09/05 08:38:55;;;;;;;0.10;0.10;;;;;;;20.19;53.78;98324.66;5005845;28;20052;-71
2023/09/05 08:41:23;;;;;;;0.15;0.15;;;;;;;20.24;53.24;98315.84;5008495;28;20046;-71
2023/09/05 08:43:52;;;;;;;0.08;0.08;;;;;;;20.16;53.69;98317.84;5012116;28;20050;-71
2023/09/05 08:46:24;;;;;;;0.13;0.13;;;;;;;20.18;53.47;98317.59;5003768;28;20117;-71
2023/09/05 08:48:52;;;;;;;0.10;0.10;;;;;;;20.22;53.30;98315.25;5012141;28;20096;-71
2023/09/05 08:51:28;;;;;;;0.03;0.03;;;;;;;20.22;53.17;98313.34;4992223;28;20129;-71
2023/09/05 08:53:57;;;;;;;0.10;0.10;;;;;;;20.29;53.79;98319.47;5009274;28;20049;-71
2023/09/05 08:56:25;;;;;;;0.10;0.10;;;;;;;20.35;53.69;98320.44;5002703;28;20038;-72
2023/09/05 08:58:54;;;;;;;0.13;0.13;;;;;;;20.46;53.32;98319.56;5007810;28;20039;-74
2023/09/05 09:01:24;;;;;;;0.15;0.15;;;;;;;20.49;52.90;98316.38;4997601;28;20042;-74
2023/09/05 09:03:53;;;;;;;0.10;0.10;;;;;;;20.54;53.43;98323.81;4989915;28;20524;-71
2023/09/05 09:06:22;;;;;;;0.15;0.15;;;;;;;20.60;52.94;98318.25;4994715;28;20050;-74
2023/09/05 09:08:51;;;;;;;0.10;0.10;;;;;;;20.63;52.70;98315.06;5012444;28;20056;-71
2023/09/05 09:11:20;;;;;;;0.03;0.03;;;;;;;20.67;52.80;98323.50;4998965;28;20077;-71
2023/09/05 09:13:49;;;;;;;0.10;0.10;;;;;;;20.74;53.07;98318.78;5012076;28;20164;-71
2023/09/05 09:16:18;;;;;;;0.10;0.10;;;;;;;20.74;52.38;98316.06;5012582;28;20116;-72
2023/09/05 09:18:49;;;;;;;0.10;0.10;;;;;;;20.87;52.96;98313.03;4988592;28;20046;-71
2023/09/05 09:21:18;;;;;;;0.05;0.05;;;;;;;20.96;52.52;98314.34;4984433;28;20045;-71
2023/09/05 09:23:52;;;;;;;0.03;0.03;;;;;;;21.06;52.79;98311.81;5003616;28;20054;-71
2023/09/05 09:26:20;;;;;;;0.10;0.10;;;;;;;21.21;52.97;98311.25;5001854;28;20060;-71
2023/09/05 09:28:47;;;;;;;0.13;0.13;;;;;;;21.39;52.13;98310.19;5005935;28;20042;-71
2023/09/05 09:31:15;;;;;;;0.00;0.00;;;;;;;21.51;51.57;98306.34;5009207;28;20120;-71
2023/09/05 09:33:43;;;;;;;0.03;0.03;;;;;;;21.49;52.13;98297.59;4996424;28;20073;-74
2023/09/05 09:36:12;;;;;;;0.03;0.03;;;;;;;21.47;51.10;98310.63;5007081;28;20054;-72
2023/09/05 09:38:40;;;;;;;0.03;0.03;;;;;;;21.48;51.29;98309.56;5012282;28;20038;-72
2023/09/05 09:41:11;;;;;;;0.03;0.03;;;;;;;21.63;50.64;98319.84;4981981;28;20408;-72
2023/09/05 09:43:39;;;;;;;0.10;0.10;;;;;;;21.67;50.15;98317.47;5008621;28;20521;-72
2023/09/05 09:46:08;;;;;;;0.00;0.00;;;;;;;21.74;50.36;98305.34;5012444;28;20042;-72
2023/09/05 09:48:37;;;;;;;0.00;0.00;;;;;;;21.81;50.22;98307.88;5011952;28;20121;-72
2023/09/05 09:51:06;;;;;;;0.10;0.10;;;;;;;21.93;49.89;98306.72;5011908;28;20176;-72
2023/09/05 09:53:38;;;;;;;0.00;0.00;;;;;;;22.03;50.23;98299.78;5007385;28;20042;-72
2023/09/05 09:56:09;;;;;;;;;;;;;;;22.15;49.58;98290.47;4992874;28;20080;-72
2023/09/05 09:58:40;;;;;;;0.00;0.00;;;;;;;22.27;48.31;98291.16;5005921;28;20012;-72
2023/09/05 10:01:11;;;;;;;0.05;0.05;;;;;;;22.38;48.57;98288.56;4999388;28;20398;-72
2023/09/05 10:03:40;;;;;;;0.03;0.03;;;;;;;22.64;48.64;98294.06;5001513;28;20065;-73
2023/09/05 10:06:09;;;;;;;0.15;0.15;;;;;;;22.95;49.43;98289.78;5010774;28;20045;-72
2023/09/05 10:08:37;;;;;;;0.00;0.00;;;;;;;23.09;48.60;98284.75;5011399;28;20509;-73
2023/09/05 10:11:14;;;;;;;0.00;0.00;;;;;;;23.23;48.37;98287.88;5011230;28;20046;-72
2023/09/05 10:13:43;;;;;;;0.10;0.10;;;;;;;23.36;48.13;98276.56;5010886;28;20049;-73
2023/09/05 10:16:12;;;;;;;0.10;0.10;;;;;;;23.35;47.41;98277.66;4980376;28;20120;-73
2023/09/05 10:18:44;;;;;;;0.03;0.03;;;;;;;23.56;47.48;98274.03;5011028;28;20034;-73
2023/09/05 10:21:14;;;;;;;0.00;0.00;;;;;;;23.73;46.61;98274.69;5001763;28;20454;-73
2023/09/05 10:23:44;;;;;;;0.10;0.10;;;;;;;23.91;46.55;98264.41;5000991;28;20042;-72
2023/09/05 10:26:15;;;;;;;0.00;0.00;;;;;;;24.36;45.48;98277.50;4998856;28;20531;-73
2023/09/05 10:28:43;;;;;;;0.10;0.10;;;;;;;24.46;44.63;98275.66;5011028;28;20042;-72
2023/09/05 10:31:12;;;;;;;0.08;0.08;;;;;;;24.50;44.94;98273.22;4997924;28;20042;-73
2023/09/05 10:33:45;;;;;;;0.00;0.00;;;;;;;24.59;44.82;98274.31;5004354;28;20046;-72
2023/09/05 10:36:32;;;;;;;;;;;;;;;24.71;44.57;98274.09;5011027;28;20061;-72
2023/09/05 10:39:00;;;;;;;0.03;0.03;;;;;;;24.71;44.53;98279.56;4998316;28;19976;-72
2023/09/05 10:41:38;;;;;;;0.10;0.10;;;;;;;24.72;44.24;98270.25;5005215;28;20037;-72
2023/09/05 10:44:07;;;;;;;0.00;0.00;;;;;;;24.75;43.79;98273.28;4997963;28;20125;-72
2023/09/05 10:46:34;;;;;;;0.00;0.00;;;;;;;24.81;44.23;98272.19;5005753;28;20052;-72
2023/09/05 10:49:11;;;;;;;0.00;0.00;;;;;;;24.88;43.42;98267.28;4995950;28;20050;-73
2023/09/05 10:52:18;;;;;;;0.10;0.10;;;;;;;25.11;43.63;98271.47;4998151;28;20046;-72
2023/09/05 10:54:46;;;;;;;0.17;0.17;;;;;;;25.11;43.50;98260.53;5006884;28;20069;-73
2023/09/05 10:57:34;;;;;;;0.03;0.03;;;;;;;25.34;42.95;98270.09;5011502;28;20050;-72
2023/09/05 11:00:12;;;;;;;0.00;0.00;;;;;;;25.12;43.99;98261.34;5006451;28;20035;-72
2023/09/05 11:02:40;;;;;;;0.10;0.10;;;;;;;25.12;44.37;98256.72;5004496;28;20113;-73
2023/09/05 11:05:11;;;;;;;0.10;0.10;;;;;;;25.54;42.20;98259.16;5014279;28;20065;-72
2023/09/05 11:07:42;;;;;;;0.00;0.00;;;;;;;25.78;42.45;98248.47;5014067;28;20052;-72
2023/09/05 11:10:12;;;;;;;0.00;0.00;;;;;;;25.98;41.44;98253.09;5014401;28;20045;-72
2023/09/05 11:12:41;;;;;;;0.00;0.00;;;;;;;25.90;41.32;98245.44;5013891;28;20525;-72
2023/09/05 11:15:09;;;;;;;0.10;0.10;;;;;;;26.07;41.22;98239.63;5014964;28;20412;-73
2023/09/05 11:17:39;;;;;;;0.00;0.00;;;;;;;26.17;41.02;98237.69;5013732;28;20128;-72
2023/09/05 11:20:09;;;;;;;0.00;0.00;;;;;;;26.38;40.88;98240.38;5014122;28;20042;-72
2023/09/05 11:22:37;;;;;;;0.03;0.03;;;;;;;26.51;40.08;98232.38;4993579;28;20524;-72
2023/09/05 11:25:09;;;;;;;0.00;0.00;;;;;;;26.37;40.38;98245.03;5013644;28;20633;-74
2023/09/05 11:27:40;;;;;;;0.00;0.00;;;;;;;26.51;40.69;98240.59;5013319;28;20436;-74
2023/09/05 11:30:11;;;;;;;0.00;0.00;;;;;;;26.50;40.62;98235.38;5011030;28;20485;-74
2023/09/05 11:32:42;;;;;;;0.00;0.00;;;;;;;26.38;41.07;98234.91;4994770;28;20374;-71
2023/09/05 11:35:10;;;;;;;0.00;0.00;;;;;;;26.58;40.36;98235.63;5000405;28;20124;-72
2023/09/05 11:37:38;;;;;;;0.10;0.10;;;;;;;26.53;39.74;98227.44;5013448;28;20056;-74
2023/09/05 11:40:10;;;;;;;0.00;0.00;;;;;;;26.76;39.63;98227.88;5013035;28;20042;-74
2023/09/05 11:42:38;;;;;;;0.00;0.00;;;;;;;26.83;39.76;98226.44;5013093;28;20490;-72
2023/09/05 11:45:17;;;;;;;0.03;0.03;;;;;;;27.00;39.40;98221.41;5013951;28;20044;-74
2023/09/05 11:47:45;;;;;;;0.00;0.00;;;;;;;27.06;39.76;98218.63;5014174;28;20038;-72
2023/09/05 11:50:14;;;;;;;0.10;0.10;;;;;;;27.19;39.50;98212.50;5013899;28;20042;-72